Hamilton, TX (76531)

11:39 AM CDT on July 10, 2014 (GMT -0500)
W5DNT (KTXHAMIL2) Elev 1217 ft | 31.62 °N, 98.16 °W | Change Station

Current weather conditions updated 22 seconds ago

Clear
Clear
86.9 °F
Feels Like 87 °F
N
3.0
Wind Variable Wind from SSE

Today is forecast to be nearly the same temperature as yesterday.

Today
High -- | Low -- °F
--% Chance of Precip.
Yesterday
High -- | Low -- °F
Precip. -- in
6:35 AM 8:40 PM
Waxing Gibbous, 95% visible
Pressure 30.11 in
Visibility 10.0 miles
Clouds Clear
Heat Index 87 °F
Dew Point 62 °F
Humidity 43%
Rainfall 0.00 in
Snow Depth Not available.
UV 10 out of 12
Pollen 4.30 out of 12
Air Quality Not available.
Flu Activity Sporadic
METAR KMNZ 101635Z AUTO 17011G20KT 140V200 10SM CLR 31/17 A3011 RMK AO2 T03100170

More Conditions Fewer Conditions

Pressure 30.11 in
Visibility 10.0 miles
Clouds Clear
Heat Index 87 °F
Dew Point 62 °F
Humidity 43%
Rainfall 0.00 in
Snow Depth Not available.
UV 10 out of 12
Pollen 4.30 out of 12
Air Quality Not available.
Flu Activity Sporadic
METAR KMNZ 101635Z AUTO 17011G20KT 140V200 10SM CLR 31/17 A3011 RMK AO2 T03100170

More Conditions Fewer Conditions

10-Day Weather Forecast

Almanac

Astronomy

Jul. 10, 2014 Rise Set
Actual Time 6:35 AM CDT 8:40 PM CDT
Civil Twilight 6:07 AM CDT 9:08 PM CDT
Nautical Twilight 5:33 AM CDT 9:41 PM CDT
Astronomical Twilight 4:57 AM CDT 10:17 PM CDT
Moon 6:58 PM CDT 4:44 AM CDT
Length of Visible Light 15h 00m
Length of Day
14h 05m
Tomorrow will be 0m 49s shorter.
Waxing Gibbous, 95% of the Moon is Illuminated
Today
Waxing Gibbous
Jul 12
Full
Jul 18
Last Quarter
Jul 26
New
Aug 3
First Quarter

Today's Extremes

State Highs State Lows

Community

WunderPhotos

Upload Photos

1,732,184 photos uploaded!

Nearby

Snow Depth

Station Depth Elevation
No new snow has been reported.

Earthquake Activity

City Distance Mag. Time & Date
No recent earthquake activity has been reported nearby.
Minimum magnitude displayed is 2.5.

Coastal Water Temperatures

Place Temperature
No Stations Reporting

Nearby Weather Stations

Station Location Temp. Heat Index Dew Point Humidity Wind Precip. Elev Updated Type
W5DNT, Hamilton, TX 86.9 °F 87 °F 62 °F 43% SSE  at  3.0 mph - / hr 1217 ft 11:39 AM CDT Normal
AB5BX, Pottsville, TX 86.2 °F 87 °F 62 °F 44% South  at  7.8 mph - / hr 1414 ft 11:30 AM CDT Normal
Zion Lutheran Church, Priddy, TX 94.6 °F 100 °F 69 °F 44% South  at  6.7 mph 0.00 in / hr 1558 ft 11:39 AM CDT Rapid Fire

Show More Stations Show Fewer Stations